Time;durP1;ratioP1;P1;durP2;ratioP2;P2;SDS_P1;SDS_P2;PMS_P1;PMS_P2;Temp;Humidity;BMP_temperature;BMP_pressure;BME280_temperature;BME280_humidity;BME280_pressure;Samples;Min_cycle;Max_cycle;Signal;HPM_P1;HPM_P2
2023/02/04 00:04:13;;;;;;;23.33;6.17;;;7.30;99.90;;;;;;2614697;54;20207;-76
2023/02/04 00:10:03;;;;;;;20.00;5.70;;;7.00;99.90;;;;;;2616135;54;20427;-76
2023/02/04 00:15:53;;;;;;;16.83;6.30;;;7.00;99.90;;;;;;2615169;54;20511;-76
2023/02/04 00:25:24;;;;;;;23.40;8.03;;;6.90;99.90;;;;;;2615143;54;20389;-76
2023/02/04 00:28:28;;;;;;;24.37;6.47;;;7.00;99.90;;;;;;2614497;39;20884;-76
2023/02/04 00:30:54;;;;;;;23.90;7.40;;;7.00;99.90;;;;;;2615640;54;20458;-77
2023/02/04 00:36:42;;;;;;;31.13;8.10;;;7.00;99.90;;;;;;2615232;54;20680;-76
2023/02/04 00:42:29;;;;;;;26.10;9.03;;;6.90;99.90;;;;;;2615107;54;20134;-76
2023/02/04 00:48:17;;;;;;;23.20;6.50;;;7.00;99.90;;;;;;2613982;54;20135;-76
2023/02/04 00:54:06;;;;;;;27.30;7.20;;;6.90;99.90;;;;;;2615670;54;20127;-76
2023/02/04 00:59:54;;;;;;;20.07;6.70;;;7.00;99.90;;;;;;2616237;54;20415;-77
2023/02/04 01:05:42;;;;;;;14.00;6.27;;;6.90;99.90;;;;;;2614151;54;20419;-75
2023/02/04 01:11:30;;;;;;;17.30;6.00;;;7.00;99.90;;;;;;2615491;54;20166;-77
2023/02/04 01:17:18;;;;;;;15.40;6.03;;;6.90;99.90;;;;;;2613854;54;20391;-77
2023/02/04 01:23:06;;;;;;;17.50;6.00;;;7.00;99.90;;;;;;2614590;54;20449;-76
2023/02/04 01:28:54;;;;;;;20.13;7.30;;;6.90;99.90;;;;;;2614931;54;20395;-76
2023/02/04 01:34:42;;;;;;;22.77;6.80;;;6.90;99.90;;;;;;2613371;54;20656;-77
2023/02/04 01:40:30;;;;;;;17.73;6.20;;;6.80;99.90;;;;;;2615770;54;20232;-77
2023/02/04 01:46:18;;;;;;;16.53;5.93;;;7.00;99.90;;;;;;2613616;54;20407;-76
2023/02/04 01:52:06;;;;;;;30.27;7.77;;;7.00;99.90;;;;;;2614254;54;20399;-76
2023/02/04 01:57:57;;;;;;;18.93;6.03;;;7.00;99.90;;;;;;2614078;39;20571;-76
2023/02/04 02:03:45;;;;;;;22.17;6.93;;;7.10;99.90;;;;;;2613993;54;21063;-76
2023/02/04 02:09:33;;;;;;;20.70;6.53;;;7.00;99.90;;;;;;2615480;54;20151;-76
2023/02/04 02:15:22;;;;;;;26.60;6.37;;;7.00;99.90;;;;;;2615292;54;20406;-76
2023/02/04 02:25:25;;;;;;;23.37;7.00;;;7.00;99.90;;;;;;2616060;54;20426;-75
2023/02/04 02:31:14;;;;;;;17.90;7.10;;;7.00;99.90;;;;;;2615243;54;20414;-76
2023/02/04 02:37:03;;;;;;;28.53;7.03;;;7.00;99.90;;;;;;2614921;54;20387;-76
2023/02/04 02:42:53;;;;;;;25.27;7.30;;;7.00;99.90;;;;;;2616093;54;20395;-75
2023/02/04 02:48:40;;;;;;;26.47;6.70;;;7.00;99.90;;;;;;2614239;54;20380;-76
2023/02/04 02:54:30;;;;;;;25.87;7.30;;;7.10;99.90;;;;;;2616079;54;20134;-76
2023/02/04 03:00:24;;;;;;;19.80;6.37;;;7.20;99.90;;;;;;2616116;54;20383;-75
2023/02/04 03:12:38;;;;;;;19.83;7.20;;;7.00;99.90;;;;;;2614465;54;20423;-75
2023/02/04 03:18:26;;;;;;;19.63;6.10;;;6.90;99.90;;;;;;2616113;54;20134;-75
2023/02/04 03:20:52;;;;;;;18.03;6.50;;;6.90;99.90;;;;;;2615911;54;20418;-76
2023/02/04 03:23:19;;;;;;;17.40;6.10;;;6.90;99.90;;;;;;2613645;54;20431;-76
2023/02/04 03:29:09;;;;;;;23.87;7.40;;;7.10;99.90;;;;;;2615702;54;20427;-76
2023/02/04 03:34:56;;;;;;;21.70;7.10;;;6.90;99.90;;;;;;2615851;39;20864;-76
2023/02/04 03:40:45;;;;;;;26.83;7.70;;;7.00;99.90;;;;;;2616273;39;20196;-76
2023/02/04 03:46:34;;;;;;;24.40;7.50;;;7.00;99.90;;;;;;2615921;54;20411;-76
2023/02/04 03:52:22;;;;;;;23.00;6.10;;;7.10;99.90;;;;;;2613707;54;20936;-76
2023/02/04 03:58:10;;;;;;;15.73;6.10;;;7.00;99.90;;;;;;2615481;54;20146;-76
2023/02/04 04:03:58;;;;;;;26.83;8.90;;;7.00;99.90;;;;;;2614726;54;20154;-76
2023/02/04 04:09:46;;;;;;;18.07;6.30;;;7.00;99.90;;;;;;2616333;39;20568;-75
2023/02/04 04:15:33;;;;;;;17.87;7.23;;;7.00;99.90;;;;;;2614709;54;20147;-75
2023/02/04 04:25:30;;;;;;;15.33;5.60;;;7.00;99.90;;;;;;2615855;54;20500;-75
2023/02/04 04:31:17;;;;;;;24.10;6.53;;;6.80;99.90;;;;;;2616751;54;20414;-75
2023/02/04 04:37:05;;;;;;;34.13;8.53;;;6.90;99.90;;;;;;2615501;54;20275;-76
2023/02/04 04:42:53;;;;;;;18.00;6.63;;;6.90;99.90;;;;;;2614619;54;20123;-78
2023/02/04 04:48:41;;;;;;;34.13;7.47;;;6.80;99.90;;;;;;2615042;54;20179;-76
2023/02/04 04:54:29;;;;;;;30.73;7.50;;;6.90;99.90;;;;;;2615806;54;20146;-77
2023/02/04 05:00:19;;;;;;;20.70;7.53;;;6.80;99.90;;;;;;2614687;54;20170;-75
2023/02/04 05:06:07;;;;;;;26.03;7.10;;;6.80;99.90;;;;;;2615568;54;20419;-76
2023/02/04 05:11:55;;;;;;;17.40;5.60;;;6.80;99.90;;;;;;2614774;54;21129;-76
2023/02/04 05:17:43;;;;;;;23.53;5.87;;;6.70;99.90;;;;;;2614825;54;20235;-75
2023/02/04 05:20:58;;;;;;;20.93;6.07;;;6.70;99.90;;;;;;2613028;54;20415;-76
2023/02/04 05:23:23;;;;;;;16.60;6.00;;;6.70;99.90;;;;;;2614455;54;20143;-77
2023/02/04 05:29:11;;;;;;;20.90;5.60;;;6.70;99.90;;;;;;2616066;54;20186;-76
2023/02/04 05:34:59;;;;;;;23.53;6.50;;;6.70;99.90;;;;;;2615974;39;20626;-76
2023/02/04 05:40:47;;;;;;;30.60;7.67;;;6.70;99.90;;;;;;2615820;46;20138;-76
2023/02/04 05:46:35;;;;;;;22.17;6.23;;;6.70;99.90;;;;;;2615276;54;20134;-76
2023/02/04 05:52:23;;;;;;;16.77;6.93;;;6.70;99.90;;;;;;2616873;54;20963;-76
2023/02/04 05:58:10;;;;;;;23.37;7.13;;;6.70;99.90;;;;;;2617634;54;20126;-75
2023/02/04 06:03:58;;;;;;;17.97;5.57;;;6.60;99.90;;;;;;2617042;54;20149;-77
2023/02/04 06:09:46;;;;;;;21.63;7.27;;;6.70;99.90;;;;;;2616954;54;20205;-76
2023/02/04 06:15:33;;;;;;;28.30;5.27;;;6.80;99.90;;;;;;2616374;54;20134;-75
2023/02/04 06:18:37;;;;;;;22.10;7.20;;;6.80;99.90;;;;;;2616785;39;20801;-77
2023/02/04 06:21:03;;;;;;;21.70;7.10;;;6.80;99.90;;;;;;2614327;54;20170;-76
2023/02/04 06:26:50;;;;;;;34.03;8.83;;;6.80;99.90;;;;;;2615067;31;20870;-76
2023/02/04 06:32:38;;;;;;;25.10;9.77;;;6.70;99.90;;;;;;2612730;54;20134;-75
2023/02/04 06:38:26;;;;;;;23.63;7.20;;;6.80;99.90;;;;;;2614084;54;20366;-76
2023/02/04 06:41:47;;;;;;;15.00;5.30;;;6.80;99.90;;;;;;2615373;39;20827;-76
2023/02/04 06:47:34;;;;;;;25.90;6.50;;;6.80;99.90;;;;;;2613969;39;20794;-76
2023/02/04 06:53:21;;;;;;;20.27;6.20;;;6.70;99.90;;;;;;2615133;54;20130;-76
2023/02/04 06:59:09;;;;;;;16.10;6.60;;;6.70;99.90;;;;;;2616986;39;20201;-77
2023/02/04 07:04:59;;;;;;;16.90;7.20;;;6.70;99.90;;;;;;2615304;54;20913;-76
2023/02/04 07:10:47;;;;;;;23.80;7.10;;;6.70;99.90;;;;;;2615613;54;20442;-77
2023/02/04 07:16:34;;;;;;;23.27;7.90;;;6.80;99.90;;;;;;2615279;54;20373;-77
2023/02/04 07:25:44;;;;;;;27.50;7.50;;;6.70;99.90;;;;;;2615531;54;20475;-76
2023/02/04 07:31:32;;;;;;;15.40;7.27;;;6.70;99.90;;;;;;2614693;54;20146;-76
2023/02/04 07:37:19;;;;;;;15.80;7.40;;;6.70;99.90;;;;;;2614493;54;20162;-76
2023/02/04 07:43:07;;;;;;;19.60;8.40;;;6.70;99.90;;;;;;2615187;54;20134;-77
2023/02/04 07:48:55;;;;;;;18.13;8.97;;;6.70;99.90;;;;;;2614222;54;20251;-77
2023/02/04 07:54:43;;;;;;;23.70;9.40;;;6.80;99.90;;;;;;2614399;54;20150;-77
2023/02/04 08:00:31;;;;;;;23.27;8.27;;;6.80;99.90;;;;;;2615400;54;20123;-76
2023/02/04 08:06:18;;;;;;;32.80;11.30;;;6.80;99.90;;;;;;2615489;54;20146;-77
2023/02/04 08:12:06;;;;;;;19.03;9.07;;;7.00;99.90;;;;;;2613993;54;20162;-76
2023/02/04 08:17:54;;;;;;;31.10;8.53;;;7.10;99.90;;;;;;2615827;54;20134;-77
2023/02/04 08:23:57;;;;;;;26.63;8.07;;;7.20;99.90;;;;;;2612309;47;20142;-76
2023/02/04 08:29:43;;;;;;;30.47;11.63;;;7.30;99.90;;;;;;2613393;54;20424;-77
2023/02/04 08:35:31;;;;;;;24.20;8.70;;;7.20;99.90;;;;;;2612060;54;20284;-76
2023/02/04 08:41:18;;;;;;;25.57;9.00;;;7.40;99.90;;;;;;2614484;54;20216;-77
2023/02/04 08:47:05;;;;;;;27.37;8.70;;;7.60;99.90;;;;;;2613083;54;20208;-77
2023/02/04 08:52:52;;;;;;;27.90;10.93;;;7.70;99.90;;;;;;2614577;54;20157;-77
2023/02/04 08:58:39;;;;;;;21.47;9.10;;;7.90;99.90;;;;;;2612814;54;20130;-76
2023/02/04 09:04:27;;;;;;;24.80;8.80;;;7.80;99.90;;;;;;2614311;54;20227;-76
2023/02/04 09:10:15;;;;;;;24.83;9.47;;;7.70;99.90;;;;;;2615494;54;20371;-77
2023/02/04 09:16:03;;;;;;;25.83;8.20;;;7.90;99.90;;;;;;2614129;39;20778;-76
2023/02/04 09:21:52;;;;;;;21.43;8.37;;;8.20;99.90;;;;;;2614186;54;20844;-76
2023/02/04 09:27:40;;;;;;;29.20;10.30;;;8.50;99.90;;;;;;2615565;54;20390;-77
2023/02/04 09:33:28;;;;;;;24.40;9.57;;;8.80;99.90;;;;;;2614167;54;20242;-77
2023/02/04 09:39:15;;;;;;;30.00;11.10;;;8.70;99.90;;;;;;2615104;54;20182;-76
2023/02/04 09:45:04;;;;;;;29.33;9.50;;;8.80;99.90;;;;;;2614178;54;20123;-76
2023/02/04 10:03:45;;;;;;;34.97;12.17;;;9.60;99.90;;;;;;2614574;54;20492;-77
2023/02/04 10:09:32;;;;;;;35.90;13.43;;;9.50;99.90;;;;;;2614142;54;20399;-77
2023/02/04 10:15:20;;;;;;;36.17;13.13;;;9.60;99.90;;;;;;2615694;39;20529;-76
2023/02/04 10:21:16;;;;;;;26.00;12.43;;;9.50;99.90;;;;;;2615154;39;20510;-77
2023/02/04 10:27:14;;;;;;;27.10;15.30;;;9.30;99.90;;;;;;2615016;54;20423;-77
2023/02/04 10:33:24;;;;;;;33.60;12.20;;;9.60;99.90;;;;;;2614860;54;20382;-78
2023/02/04 10:46:03;;;;;;;28.90;12.57;;;10.10;99.90;;;;;;2612277;54;20499;-77
2023/02/04 10:51:52;;;;;;;33.50;14.00;;;9.60;99.90;;;;;;2614638;54;20412;-77
2023/02/04 10:57:41;;;;;;;32.43;13.20;;;9.80;99.90;;;;;;2614847;54;20409;-76
2023/02/04 11:03:29;;;;;;;22.83;14.10;;;10.20;99.90;;;;;;2614764;54;20407;-76
2023/02/04 11:09:17;;;;;;;27.83;11.27;;;9.80;99.90;;;;;;2613298;54;20417;-75
2023/02/04 11:15:06;;;;;;;29.00;12.93;;;9.20;99.90;;;;;;2613880;54;20414;-76
2023/02/04 11:20:57;;;;;;;26.33;11.20;;;9.50;99.90;;;;;;2613827;54;20455;-78
2023/02/04 11:26:51;;;;;;;33.90;15.47;;;9.30;99.90;;;;;;2615021;54;20496;-77
2023/02/04 11:32:38;;;;;;;32.70;13.57;;;9.20;99.90;;;;;;2612807;54;20382;-77
2023/02/04 11:38:28;;;;;;;31.97;13.50;;;9.70;99.90;;;;;;2614055;54;20138;-75
2023/02/04 11:47:37;;;;;;;24.70;11.47;;;9.70;99.90;;;;;;2613700;54;20388;-77
2023/02/04 11:53:32;;;;;;;30.13;13.73;;;10.00;99.90;;;;;;2613671;54;20443;-76
2023/02/04 11:59:20;;;;;;;22.43;13.73;;;9.70;99.90;;;;;;2612751;54;20952;-77
2023/02/04 12:08:33;;;;;;;24.53;13.47;;;9.90;99.90;;;;;;2614079;54;20387;-76
2023/02/04 12:14:21;;;;;;;25.33;15.40;;;9.60;99.90;;;;;;2614125;54;20419;-76
2023/02/04 12:20:08;;;;;;;29.77;13.83;;;9.90;99.90;;;;;;2613193;54;20146;-76
2023/02/04 12:25:57;;;;;;;28.43;13.80;;;9.70;99.90;;;;;;2613813;54;20423;-78
2023/02/04 12:29:15;;;;;;;32.37;14.03;;;9.70;99.90;;;;;;2611880;46;20434;-77
2023/02/04 12:35:04;;;;;;;29.40;14.50;;;9.60;99.90;;;;;;2613857;54;20411;-78
2023/02/04 12:40:52;;;;;;;30.00;12.57;;;9.80;99.90;;;;;;2615370;54;20391;-78
2023/02/04 12:46:41;;;;;;;29.53;13.20;;;9.70;99.90;;;;;;2614036;54;20269;-76
2023/02/04 12:52:29;;;;;;;27.13;13.70;;;10.00;99.90;;;;;;2615248;54;20379;-77
2023/02/04 12:58:17;;;;;;;28.70;13.43;;;10.00;99.90;;;;;;2613866;54;20387;-76
2023/02/04 13:04:04;;;;;;;26.00;12.90;;;10.00;99.90;;;;;;2614650;54;20134;-76
2023/02/04 13:09:56;;;;;;;24.73;17.07;;;10.00;99.90;;;;;;2614999;54;20131;-77
2023/02/04 13:15:44;;;;;;;25.40;13.00;;;10.00;99.90;;;;;;2616555;54;20395;-76
2023/02/04 13:21:32;;;;;;;26.20;13.00;;;10.20;99.90;;;;;;2616152;39;20859;-78
2023/02/04 13:24:43;;;;;;;24.10;11.23;;;10.30;99.90;;;;;;2615112;39;20805;-77
2023/02/04 13:27:09;;;;;;;25.27;13.13;;;10.90;99.90;;;;;;2613151;47;20190;-78
2023/02/04 13:32:58;;;;;;;25.37;13.30;;;11.20;99.90;;;;;;2612991;54;20151;-76
2023/02/04 13:38:46;;;;;;;23.57;12.37;;;11.80;96.10;;;;;;2614802;54;20391;-77
2023/02/04 13:44:33;;;;;;;18.43;13.20;;;11.70;94.80;;;;;;2615284;54;20648;-77
2023/02/04 13:50:22;;;;;;;21.13;12.10;;;11.70;89.80;;;;;;2616069;54;20134;-76
2023/02/04 13:56:10;;;;;;;16.80;11.43;;;11.00;84.70;;;;;;2615381;54;20421;-75
2023/02/04 14:01:58;;;;;;;15.53;10.83;;;11.10;81.80;;;;;;2612926;54;20147;-76
2023/02/04 14:07:46;;;;;;;21.20;11.73;;;12.20;73.10;;;;;;2614837;54;20134;-77
2023/02/04 14:13:34;;;;;;;28.67;13.20;;;11.70;62.40;;;;;;2616258;54;20439;-77
2023/02/04 14:19:26;;;;;;;23.17;14.20;;;12.20;75.60;;;;;;2614806;39;20622;-77
2023/02/04 14:29:18;;;;;;;24.40;12.93;;;10.90;81.00;;;;;;2615500;39;20800;-77
2023/02/04 14:35:06;;;;;;;21.13;12.77;;;10.10;99.90;;;;;;2612696;39;20839;-76
2023/02/04 14:40:53;;;;;;;24.63;12.70;;;10.20;99.90;;;;;;2614690;54;20418;-77
2023/02/04 14:46:43;;;;;;;19.70;12.57;;;10.80;98.40;;;;;;2614727;54;20147;-76
2023/02/04 14:52:30;;;;;;;22.13;10.50;;;10.10;99.10;;;;;;2615047;54;20567;-77
2023/02/04 14:58:17;;;;;;;21.07;9.93;;;9.80;99.90;;;;;;2613628;54;20294;-77
2023/02/04 15:04:05;;;;;;;22.07;11.10;;;10.00;99.90;;;;;;2613373;54;20158;-77
2023/02/04 15:09:52;;;;;;;18.73;10.63;;;10.20;99.90;;;;;;2614872;54;20567;-75
2023/02/04 15:15:39;;;;;;;20.20;11.03;;;10.00;97.30;;;;;;2615352;54;20149;-76
2023/02/04 15:21:27;;;;;;;20.57;11.63;;;10.10;96.90;;;;;;2615016;54;20150;-76
2023/02/04 15:24:49;;;;;;;21.70;11.33;;;10.00;97.10;;;;;;2616489;39;20824;-76
2023/02/04 15:27:14;;;;;;;15.10;10.43;;;9.90;95.10;;;;;;2617081;54;20291;-76
2023/02/04 15:33:02;;;;;;;24.40;10.43;;;10.00;75.90;;;;;;2615633;54;20139;-77
2023/02/04 15:38:50;;;;;;;25.60;10.30;;;9.80;79.00;;;;;;2616774;54;20669;-76
2023/02/04 15:44:38;;;;;;;14.73;8.70;;;9.80;79.80;;;;;;2616292;54;20138;-76
2023/02/04 15:50:26;;;;;;;16.30;8.13;;;9.60;67.40;;;;;;2616830;54;20692;-76
2023/02/04 15:52:52;;;;;;;18.43;9.30;;;9.40;71.50;;;;;;2615797;46;20423;-76
2023/02/04 15:55:18;;;;;;;13.23;10.03;;;9.40;76.60;;;;;;2615028;47;20419;-76
2023/02/04 16:01:05;;;;;;;21.53;9.60;;;9.30;76.00;;;;;;2614426;54;20192;-75
2023/02/04 16:06:52;;;;;;;18.03;10.20;;;9.20;82.30;;;;;;2614537;54;20170;-75
2023/02/04 16:12:40;;;;;;;28.63;9.63;;;9.00;94.00;;;;;;2614442;54;20168;-76
2023/02/04 16:18:27;;;;;;;18.13;10.03;;;8.70;97.90;;;;;;2613415;54;20258;-77
2023/02/04 16:24:17;;;;;;;17.77;9.47;;;8.40;94.30;;;;;;2614684;54;20130;-77
2023/02/04 16:30:04;;;;;;;12.80;8.77;;;8.20;99.90;;;;;;2614449;54;20419;-77
2023/02/04 16:36:01;;;;;;;20.17;9.03;;;8.00;99.90;;;;;;2615668;39;20930;-78
2023/02/04 16:41:49;;;;;;;15.10;8.13;;;7.70;99.90;;;;;;2616125;54;20945;-77
2023/02/04 16:47:36;;;;;;;18.10;9.23;;;7.70;99.90;;;;;;2612944;54;20399;-77
2023/02/04 16:53:24;;;;;;;12.10;7.60;;;7.50;99.90;;;;;;2613501;54;20166;-76
2023/02/04 17:02:35;;;;;;;20.47;9.10;;;7.50;99.90;;;;;;2613722;54;20399;-78
2023/02/04 17:08:22;;;;;;;24.90;10.73;;;7.50;99.90;;;;;;2614796;39;20478;-77
2023/02/04 17:14:15;;;;;;;24.10;10.47;;;7.30;99.90;;;;;;2614472;54;20122;-78
2023/02/04 17:20:03;;;;;;;20.27;9.73;;;7.10;99.90;;;;;;2615985;39;20806;-76
2023/02/04 17:29:21;;;;;;;19.77;9.00;;;6.60;99.90;;;;;;2615952;54;20384;-76
2023/02/04 17:35:08;;;;;;;18.27;9.00;;;6.30;99.90;;;;;;2613109;54;20496;-77
2023/02/04 17:40:55;;;;;;;21.77;10.03;;;5.90;99.90;;;;;;2613241;54;20130;-77
2023/02/04 17:46:43;;;;;;;30.47;12.70;;;5.80;99.90;;;;;;2613538;54;20122;-78
2023/02/04 17:52:32;;;;;;;20.40;10.20;;;6.00;99.90;;;;;;2613836;54;20151;-77
2023/02/04 17:58:22;;;;;;;26.50;13.97;;;5.90;99.90;;;;;;2612861;54;20451;-76
2023/02/04 18:04:13;;;;;;;32.10;14.80;;;5.80;99.90;;;;;;2612241;54;21471;-77
2023/02/04 18:16:34;;;;;;;30.20;15.47;;;5.50;99.90;;;;;;2614799;54;20904;-77
2023/02/04 18:22:24;;;;;;;32.93;13.80;;;5.60;99.90;;;;;;2613350;39;20858;-77
2023/02/04 18:28:14;;;;;;;33.77;15.07;;;5.70;99.90;;;;;;2614313;54;20446;-76
2023/02/04 18:31:36;;;;;;;30.33;12.87;;;5.80;99.90;;;;;;2614463;47;20423;-76
2023/02/04 18:37:30;;;;;;;23.33;14.00;;;5.80;99.90;;;;;;2614935;54;20431;-76
2023/02/04 18:43:23;;;;;;;32.03;15.00;;;5.70;99.90;;;;;;2614317;54;20418;-77
2023/02/04 18:49:29;;;;;;;28.83;14.40;;;5.60;99.90;;;;;;2614159;54;20925;-77
2023/02/04 19:01:38;;;;;;;37.43;17.20;;;5.50;99.90;;;;;;2615337;54;20508;-76
2023/02/04 19:07:26;;;;;;;39.67;18.47;;;5.60;99.90;;;;;;2615014;54;20419;-78
2023/02/04 19:13:22;;;;;;;35.77;16.93;;;5.80;99.90;;;;;;2613798;39;20718;-78
2023/02/04 19:23:19;;;;;;;38.07;16.90;;;5.80;99.90;;;;;;2613800;54;20391;-78
2023/02/04 19:45:49;;;;;;;31.03;15.83;;;5.60;99.90;;;;;;2611996;54;20429;-78
2023/02/04 20:01:33;;;;;;;36.80;18.10;;;5.80;99.90;;;;;;2614262;54;20366;-77
2023/02/04 20:07:22;;;;;;;39.27;20.63;;;5.80;99.90;;;;;;2613750;39;20641;-80
2023/02/04 20:13:18;;;;;;;34.87;18.97;;;5.80;99.90;;;;;;2614391;54;20994;-79
2023/02/04 20:25:53;;;;;;;34.43;17.30;;;5.80;99.90;;;;;;2613353;54;20447;-78
2023/02/04 20:35:08;;;;;;;42.73;18.67;;;5.80;99.90;;;;;;2612659;54;20403;-77
2023/02/04 20:40:55;;;;;;;48.30;17.77;;;5.80;99.90;;;;;;2612446;54;20381;-79
2023/02/04 20:46:42;;;;;;;28.93;16.43;;;5.90;99.90;;;;;;2611326;54;20130;-77
2023/02/04 20:52:47;;;;;;;21.87;14.30;;;5.80;99.90;;;;;;2613043;54;20669;-80
2023/02/04 20:58:38;;;;;;;30.87;16.43;;;5.80;99.90;;;;;;2613773;54;20398;-78
2023/02/04 21:04:29;;;;;;;34.73;16.80;;;5.70;99.90;;;;;;2613031;54;20399;-78
2023/02/04 21:10:17;;;;;;;37.13;19.23;;;5.70;99.90;;;;;;2615854;31;21007;-77
2023/02/04 21:16:06;;;;;;;38.10;17.97;;;5.80;99.90;;;;;;2613721;54;20135;-78
2023/02/04 21:21:56;;;;;;;32.50;18.83;;;5.90;99.90;;;;;;2615273;54;20403;-78
2023/02/04 21:27:43;;;;;;;41.47;18.07;;;6.00;99.90;;;;;;2614570;54;20387;-77
2023/02/04 21:33:34;;;;;;;31.97;20.40;;;6.00;99.90;;;;;;2616270;54;20174;-77
2023/02/04 21:39:22;;;;;;;33.70;18.00;;;6.00;99.90;;;;;;2615939;39;21543;-79
2023/02/04 21:42:08;;;;;;;26.90;18.00;;;6.00;99.90;;;;;;2615208;54;20419;-78
2023/02/04 21:44:33;;;;;;;26.93;16.90;;;6.00;99.90;;;;;;2614460;47;20150;-79
2023/02/04 21:50:21;;;;;;;32.03;18.67;;;6.00;99.90;;;;;;2613555;39;20526;-78
2023/02/04 21:56:09;;;;;;;35.80;18.83;;;5.90;99.90;;;;;;2614248;39;20948;-78
2023/02/04 22:01:56;;;;;;;32.60;18.40;;;6.00;99.90;;;;;;2612447;54;20508;-78
2023/02/04 22:07:44;;;;;;;34.83;17.60;;;5.90;99.90;;;;;;2614452;39;20575;-78
2023/02/04 22:19:38;;;;;;;38.60;18.80;;;5.90;99.90;;;;;;2615914;54;20394;-78
2023/02/04 22:25:25;;;;;;;30.37;17.40;;;5.70;99.90;;;;;;2615630;54;20138;-77
2023/02/04 22:34:51;;;;;;;28.50;17.70;;;5.40;99.90;;;;;;2615467;54;20467;-77
2023/02/04 22:40:38;;;;;;;38.90;20.73;;;5.50;99.90;;;;;;2616412;54;20941;-77
2023/02/04 22:46:28;;;;;;;35.87;24.10;;;5.60;99.90;;;;;;2615132;54;20121;-77
2023/02/04 22:52:16;;;;;;;33.90;20.93;;;5.60;99.90;;;;;;2615193;39;20809;-76
2023/02/04 22:58:03;;;;;;;28.10;18.03;;;5.60;99.90;;;;;;2614699;54;20130;-79
2023/02/04 23:03:51;;;;;;;36.50;23.20;;;5.70;99.90;;;;;;2614467;54;20158;-77
2023/02/04 23:09:39;;;;;;;31.67;21.37;;;5.90;99.90;;;;;;2614957;54;20131;-79
2023/02/04 23:15:27;;;;;;;30.33;20.60;;;5.80;99.90;;;;;;2616340;54;20448;-77
2023/02/04 23:21:15;;;;;;;31.80;19.87;;;5.80;99.90;;;;;;2615826;39;20523;-78
2023/02/04 23:27:03;;;;;;;49.00;21.67;;;5.80;99.90;;;;;;2614966;54;20151;-77
2023/02/04 23:32:45;;;;;;;43.63;20.57;;;5.70;99.90;;;;;;2613674;54;20384;-77
2023/02/04 23:38:32;;;;;;;41.53;21.70;;;5.80;99.90;;;;;;2616521;54;20403;-78
2023/02/04 23:44:20;;;;;;;34.73;19.43;;;5.80;99.90;;;;;;2614887;54;20158;-77
2023/02/04 23:50:08;;;;;;;34.10;19.53;;;5.90;99.90;;;;;;2614991;54;20123;-77
2023/02/04 23:55:56;;;;;;;38.43;20.33;;;5.90;99.90;;;;;;2614911;54;20375;-77
